Time;durP1;ratioP1;P1;durP2;ratioP2;P2;SDS_P1;SDS_P2;PMS_P1;PMS_P2;Temp;Humidity;BMP_temperature;BMP_pressure;BME280_temperature;BME280_humidity;BME280_pressure;Samples;Min_cycle;Max_cycle;Signal;HPM_P1;HPM_P2
2022/08/25 00:00:32;;;;;;;7.93;5.20;;;;;20.00;101108.00;;;;12834248;22;20662;-78
2022/08/25 00:05:34;;;;;;;6.45;5.75;;;;;19.90;101096.00;;;;12835774;22;20170;-78
2022/08/25 00:10:37;;;;;;;6.53;5.75;;;;;19.80;101100.00;;;;12815795;22;20181;-79
2022/08/25 00:15:39;;;;;;;7.15;6.22;;;;;19.70;101085.00;;;;12791098;22;20356;-78
2022/08/25 00:20:40;;;;;;;9.75;7.30;;;;;19.60;101091.00;;;;12810911;22;20190;-78
2022/08/25 00:25:50;;;;;;;8.77;6.07;;;;;19.50;101093.00;;;;12836629;22;20241;-79
2022/08/25 00:30:51;;;;;;;8.35;6.18;;;;;19.50;101088.00;;;;12790391;22;20661;-79
2022/08/25 00:35:55;;;;;;;6.95;6.25;;;;;19.40;101080.00;;;;12791176;22;20190;-78
2022/08/25 00:41:05;;;;;;;7.25;6.18;;;;;19.40;101078.00;;;;12763471;22;20195;-78
2022/08/25 00:46:12;;;;;;;9.00;6.68;;;;;19.30;101086.00;;;;12860783;22;20166;-78
2022/08/25 00:51:20;;;;;;;11.20;6.32;;;;;19.30;101085.00;;;;12790079;22;20174;-79
2022/08/25 00:56:23;;;;;;;8.82;7.95;;;;;19.20;101074.00;;;;12815657;22;20174;-79
2022/08/25 01:01:25;;;;;;;8.43;7.63;;;;;19.10;101076.00;;;;12789793;22;20197;-79
2022/08/25 01:06:31;;;;;;;11.57;8.68;;;;;19.10;101081.00;;;;12837167;22;20166;-79
2022/08/25 01:11:33;;;;;;;8.80;7.07;;;;;19.00;101085.00;;;;12792013;22;20253;-78
2022/08/25 01:16:37;;;;;;;7.55;6.63;;;;;19.00;101083.00;;;;12792843;22;20584;-78
2022/08/25 01:21:45;;;;;;;8.40;6.95;;;;;18.90;101076.00;;;;12791080;22;20206;-79
2022/08/25 01:26:47;;;;;;;7.65;6.85;;;;;18.90;101084.00;;;;12766936;22;20239;-79
2022/08/25 01:32:04;;;;;;;8.38;6.53;;;;;18.80;101084.00;;;;12810572;22;20220;-78
2022/08/25 01:37:06;;;;;;;7.57;6.80;;;;;18.70;101093.00;;;;12790702;22;20962;-79
2022/08/25 01:42:10;;;;;;;7.85;7.05;;;;;18.60;101094.00;;;;12789072;22;20233;-79
2022/08/25 01:47:12;;;;;;;9.40;7.35;;;;;18.60;101082.00;;;;12790043;22;20428;-78
2022/08/25 01:52:18;;;;;;;9.35;7.93;;;;;18.60;101076.00;;;;12839828;22;20875;-78
2022/08/25 01:57:22;;;;;;;8.98;8.13;;;;;18.50;101072.00;;;;12815686;22;20194;-79
2022/08/25 02:02:23;;;;;;;11.77;9.98;;;;;18.50;101072.00;;;;12818815;22;20202;-78
2022/08/25 02:07:27;;;;;;;13.13;11.13;;;;;18.40;101067.00;;;;12819188;22;20173;-79
2022/08/25 02:12:30;;;;;;;12.95;11.38;;;;;18.30;101066.00;;;;12864918;22;20174;-78
2022/08/25 02:17:35;;;;;;;12.50;11.32;;;;;18.20;101059.00;;;;12794706;22;20201;-78
2022/08/25 02:22:36;;;;;;;13.07;10.93;;;;;18.10;101057.00;;;;12793751;22;20198;-79
2022/08/25 02:27:38;;;;;;;12.43;10.10;;;;;18.00;101059.00;;;;12862915;22;20185;-79
2022/08/25 02:32:39;;;;;;;11.57;9.52;;;;;17.90;101054.00;;;;12768906;22;20194;-79
2022/08/25 02:37:41;;;;;;;10.50;9.27;;;;;17.80;101062.00;;;;12839135;22;20225;-79
2022/08/25 02:42:43;;;;;;;12.07;10.27;;;;;17.70;101047.00;;;;12792545;22;20266;-79
2022/08/25 02:47:44;;;;;;;12.27;10.93;;;;;17.70;101046.00;;;;12794109;22;20231;-79
2022/08/25 02:52:49;;;;;;;17.08;11.18;;;;;17.70;101055.00;;;;12795163;22;20178;-79
2022/08/25 02:57:50;;;;;;;11.45;9.75;;;;;17.60;101050.00;;;;12819648;22;20190;-79
2022/08/25 03:02:51;;;;;;;11.05;10.02;;;;;17.60;101044.00;;;;12792954;22;20770;-79
2022/08/25 03:07:52;;;;;;;13.55;10.68;;;;;17.70;101037.00;;;;12838960;22;20224;-79
2022/08/25 03:12:55;;;;;;;16.23;10.93;;;;;17.80;101024.00;;;;12791765;22;20316;-78
2022/08/25 03:17:56;;;;;;;12.30;11.02;;;;;17.90;101019.00;;;;12791329;22;20226;-78
2022/08/25 03:23:04;;;;;;;12.13;10.85;;;;;17.90;101018.00;;;;12861806;22;20216;-79
2022/08/25 03:28:06;;;;;;;11.53;10.23;;;;;17.90;101009.00;;;;12791711;22;20364;-79
2022/08/25 03:33:08;;;;;;;12.95;10.82;;;;;17.80;101001.00;;;;12790786;22;20783;-78
2022/08/25 03:38:10;;;;;;;11.98;10.88;;;;;17.80;100989.00;;;;12766308;22;20190;-79
2022/08/25 03:43:12;;;;;;;11.35;9.75;;;;;17.80;100989.00;;;;12815269;22;20174;-78
2022/08/25 03:48:14;;;;;;;11.88;9.82;;;;;17.80;100995.00;;;;12791358;22;20236;-79
2022/08/25 03:53:17;;;;;;;11.82;10.50;;;;;17.80;100992.00;;;;12790716;22;20202;-80
2022/08/25 03:58:18;;;;;;;10.88;9.75;;;;;17.70;100989.00;;;;12815082;22;20194;-79
2022/08/25 04:03:19;;;;;;;13.25;10.27;;;;;17.70;100986.00;;;;12816082;22;20170;-78
2022/08/25 04:08:21;;;;;;;12.30;9.57;;;;;17.70;100998.00;;;;12766895;22;20691;-79
2022/08/25 04:13:22;;;;;;;11.90;9.70;;;;;17.60;100985.00;;;;12835895;22;20856;-78
2022/08/25 04:18:24;;;;;;;10.10;9.07;;;;;17.60;100988.00;;;;12791442;22;20193;-78
2022/08/25 04:23:25;;;;;;;10.48;9.00;;;;;17.50;100977.00;;;;12790907;22;20174;-79
2022/08/25 04:28:26;;;;;;;9.93;8.57;;;;;17.50;100971.00;;;;12862879;22;20198;-79
2022/08/25 04:33:27;;;;;;;10.40;9.27;;;;;17.40;100970.00;;;;12790681;22;20173;-78
2022/08/25 04:38:29;;;;;;;12.25;9.23;;;;;17.30;100980.00;;;;12816369;22;20198;-78
2022/08/25 04:43:32;;;;;;;14.38;8.48;;;;;17.30;100973.00;;;;12767072;22;20174;-78
2022/08/25 04:48:33;;;;;;;12.70;9.50;;;;;17.30;100973.00;;;;12792454;22;20672;-79
2022/08/25 04:53:36;;;;;;;10.77;9.30;;;;;17.30;100985.00;;;;12840760;22;20253;-79
2022/08/25 04:58:38;;;;;;;14.82;9.75;;;;;17.30;100974.00;;;;12790175;22;20194;-79
2022/08/25 05:03:39;;;;;;;12.63;9.35;;;;;17.30;100985.00;;;;12836125;22;20497;-79
2022/08/25 05:08:40;;;;;;;10.23;8.57;;;;;17.40;100990.00;;;;12812015;22;20441;-79
2022/08/25 05:13:45;;;;;;;11.33;8.63;;;;;17.50;100978.00;;;;12815077;22;20174;-79
2022/08/25 05:18:53;;;;;;;11.45;8.43;;;;;17.70;100982.00;;;;12837075;22;20235;-79
2022/08/25 05:23:59;;;;;;;8.57;7.68;;;;;18.00;100986.00;;;;12860778;22;20182;-79
2022/08/25 05:29:03;;;;;;;10.35;8.43;;;;;18.30;100982.00;;;;12788678;22;20173;-79
2022/08/25 05:34:06;;;;;;;9.07;8.13;;;;;18.70;100982.00;;;;12790458;22;20757;-80
2022/08/25 05:39:08;;;;;;;9.43;7.75;;;;;19.20;100972.00;;;;12764695;22;20616;-79
2022/08/25 05:44:11;;;;;;;12.73;7.82;;;;;19.60;100972.00;;;;12788805;22;20224;-79
2022/08/25 05:49:12;;;;;;;8.73;6.97;;;;;20.10;100981.00;;;;12840884;22;20183;-79
2022/08/25 05:54:14;;;;;;;7.60;5.28;;;;;20.60;100978.00;;;;12835456;22;20860;-79
2022/08/25 05:59:15;;;;;;;8.00;5.05;;;;;21.30;100974.00;;;;12820749;22;20212;-79
2022/08/25 06:04:18;;;;;;;5.90;5.05;;;;;21.90;100977.00;;;;12790058;22;20501;-80
2022/08/25 06:09:21;;;;;;;5.68;4.57;;;;;22.40;100974.00;;;;12793489;22;20226;-79
2022/08/25 06:14:23;;;;;;;6.00;4.05;;;;;22.80;100970.00;;;;12834723;22;20166;-79
2022/08/25 06:19:26;;;;;;;4.90;4.32;;;;;23.10;100972.00;;;;12860219;22;20183;-79
2022/08/25 06:24:28;;;;;;;6.95;4.63;;;;;23.50;100975.00;;;;12818491;22;20169;-78
2022/08/25 06:29:29;;;;;;;10.30;4.25;;;;;24.00;100968.00;;;;12812960;22;20173;-79
2022/08/25 06:34:31;;;;;;;8.80;3.83;;;;;24.10;100978.00;;;;12789691;22;20178;-80
2022/08/25 06:39:33;;;;;;;6.63;4.03;;;;;24.30;100974.00;;;;12788975;23;20194;-79
2022/08/25 06:44:34;;;;;;;8.00;4.05;;;;;24.30;100979.00;;;;12792574;22;20178;-79
2022/08/25 06:49:35;;;;;;;8.65;3.53;;;;;24.20;100970.00;;;;12793008;22;20221;-79
2022/08/25 06:54:37;;;;;;;8.80;3.75;;;;;24.10;100953.00;;;;12859847;22;20169;-78
2022/08/25 06:59:38;;;;;;;4.88;3.75;;;;;24.40;100955.00;;;;12860314;22;20966;-78
2022/08/25 07:04:42;;;;;;;4.13;3.60;;;;;25.20;100953.00;;;;12816473;22;20167;-78
2022/08/25 07:09:43;;;;;;;3.90;3.08;;;;;25.90;100958.00;;;;12862952;22;20254;-78
2022/08/25 07:14:45;;;;;;;5.68;2.33;;;;;26.20;100959.00;;;;12814811;22;20180;-79
2022/08/25 07:20:05;;;;;;;5.95;2.40;;;;;26.70;100954.00;;;;12815219;22;20194;-78
2022/08/25 07:25:07;;;;;;;3.95;2.50;;;;;27.10;100951.00;;;;12787748;22;20185;-79
2022/08/25 07:30:09;;;;;;;3.83;2.33;;;;;27.40;100955.00;;;;12814816;22;20186;-79
2022/08/25 07:35:15;;;;;;;4.25;2.38;;;;;27.80;100961.00;;;;12834874;22;20683;-76
2022/08/25 07:40:23;;;;;;;4.55;2.40;;;;;28.00;100965.00;;;;12813219;22;20254;-76
2022/08/25 07:45:30;;;;;;;8.73;2.60;;;;;28.20;100968.00;;;;12814119;23;20170;-77
2022/08/25 07:50:33;;;;;;;8.18;2.10;;;;;28.30;100956.00;;;;12788662;22;20661;-76
2022/08/25 07:55:37;;;;;;;8.20;2.58;;;;;29.00;100964.00;;;;12789179;22;20178;-77
2022/08/25 08:00:40;;;;;;;2.78;2.30;;;;;29.60;100969.00;;;;12838394;22;20232;-77
2022/08/25 08:05:43;;;;;;;5.97;2.40;;;;;30.00;100968.00;;;;12789135;22;20174;-77
2022/08/25 08:10:44;;;;;;;6.85;2.42;;;;;31.00;100972.00;;;;12789137;22;20412;-77
2022/08/25 08:16:10;;;;;;;7.28;2.30;;;;;31.90;100968.00;;;;12814407;22;20177;-78
2022/08/25 08:21:17;;;;;;;5.88;2.58;;;;;31.70;100973.00;;;;12815554;22;20285;-78
2022/08/25 08:26:22;;;;;;;3.22;2.08;;;;;30.80;100975.00;;;;12814848;22;20197;-78
2022/08/25 08:31:42;;;;;;;4.57;2.15;;;;;30.70;100970.00;;;;12816496;22;20173;-78
2022/08/25 08:36:49;;;;;;;5.68;2.20;;;;;31.50;100974.00;;;;12790651;22;20213;-78
2022/08/25 08:42:18;;;;;;;4.35;2.53;;;;;32.40;100962.00;;;;12816368;22;20197;-78
2022/08/25 08:47:38;;;;;;;6.57;2.20;;;;;33.00;100957.00;;;;12814317;22;20174;-78
2022/08/25 08:52:53;;;;;;;6.95;1.88;;;;;33.40;100950.00;;;;12816187;22;20201;-77
2022/08/25 08:57:57;;;;;;;2.42;2.13;;;;;33.60;100943.00;;;;12816333;22;20166;-77
2022/08/25 09:03:04;;;;;;;2.35;1.83;;;;;34.00;100946.00;;;;12814420;22;20213;-78
2022/08/25 09:08:11;;;;;;;5.53;2.20;;;;;34.40;100934.00;;;;12786646;22;20174;-77
2022/08/25 09:13:30;;;;;;;3.05;1.92;;;;;34.80;100942.00;;;;12860065;22;20162;-77
2022/08/25 09:19:25;;;;;;;5.00;2.00;;;;;35.30;100934.00;;;;12858327;22;20221;-77
2022/08/25 09:24:57;;;;;;;3.40;1.75;;;;;35.80;100937.00;;;;12858970;22;20166;-78
2022/08/25 09:30:06;;;;;;;8.65;1.92;;;;;36.30;100940.00;;;;12762239;22;20192;-77
2022/08/25 09:35:18;;;;;;;4.70;1.77;;;;;36.40;100927.00;;;;12832425;22;20277;-77
2022/08/25 09:40:20;;;;;;;3.47;1.70;;;;;36.70;100927.00;;;;12810301;23;20232;-77
2022/08/25 09:45:40;;;;;;;6.68;1.80;;;;;37.10;100933.00;;;;12811941;22;20173;-77
2022/08/25 09:50:43;;;;;;;1.88;1.60;;;;;37.20;100930.00;;;;12856501;22;20194;-77
2022/08/25 09:55:56;;;;;;;3.10;1.58;;;;;37.40;100925.00;;;;12806897;22;20162;-77
2022/08/25 10:01:12;;;;;;;2.88;1.50;;;;;37.50;100914.00;;;;12856573;22;20260;-78
2022/08/25 10:06:14;;;;;;;2.80;1.27;;;;;38.00;100909.00;;;;12786772;22;20257;-78
2022/08/25 10:11:42;;;;;;;1.85;1.27;;;;;38.50;100901.00;;;;12813269;22;20193;-78
2022/08/25 10:16:46;;;;;;;1.42;1.33;;;;;38.60;100915.00;;;;12839443;22;20833;-77
2022/08/25 10:22:06;;;;;;;4.25;1.60;;;;;38.60;100911.00;;;;12813547;22;20257;-77
2022/08/25 10:27:36;;;;;;;1.67;1.25;;;;;38.60;100903.00;;;;12837791;22;20173;-77
2022/08/25 10:32:45;;;;;;;3.55;1.60;;;;;39.00;100905.00;;;;12789393;22;20173;-77
2022/08/25 10:38:06;;;;;;;4.00;1.60;;;;;38.80;100899.00;;;;12787834;22;20281;-77
2022/08/25 10:43:34;;;;;;;3.85;1.60;;;;;39.10;100885.00;;;;12788272;22;20486;-78
2022/08/25 10:48:35;;;;;;;2.35;1.60;;;;;39.40;100893.00;;;;12814143;22;20909;-78
2022/08/25 10:53:55;;;;;;;3.55;1.70;;;;;39.60;100875.00;;;;12787829;22;20173;-77
2022/08/25 10:59:06;;;;;;;4.40;1.63;;;;;40.00;100877.00;;;;12833485;22;20181;-77
2022/08/25 11:04:27;;;;;;;2.72;1.67;;;;;40.10;100864.00;;;;12765085;22;20182;-78
2022/08/25 11:09:33;;;;;;;3.42;1.55;;;;;40.40;100850.00;;;;12809085;22;20631;-77
2022/08/25 11:15:00;;;;;;;3.47;1.67;;;;;40.20;100844.00;;;;12788261;22;20209;-77
2022/08/25 11:20:17;;;;;;;3.63;1.60;;;;;40.10;100844.00;;;;12812863;22;20189;-77
2022/08/25 11:25:33;;;;;;;2.83;1.70;;;;;40.10;100833.00;;;;12787343;22;20181;-77
2022/08/25 11:30:36;;;;;;;4.63;1.70;;;;;40.60;100836.00;;;;12811665;22;20178;-78
2022/08/25 11:35:58;;;;;;;3.22;1.83;;;;;40.60;100820.00;;;;12833185;22;20181;-77
2022/08/25 11:41:22;;;;;;;4.78;1.88;;;;;40.80;100823.00;;;;12810651;22;20664;-77
2022/08/25 11:47:06;;;;;;;2.72;1.60;;;;;40.60;100822.00;;;;12787027;22;20174;-77
2022/08/25 11:52:32;;;;;;;2.40;1.60;;;;;40.70;100813.00;;;;12788441;22;20173;-77
2022/08/25 11:57:37;;;;;;;1.70;1.60;;;;;41.20;100803.00;;;;12858341;22;20185;-77
2022/08/25 12:02:43;;;;;;;6.63;1.70;;;;;41.50;100798.00;;;;12812735;22;20197;-77
2022/08/25 12:13:37;;;;;;;4.45;1.80;;;;;41.40;100793.00;;;;12786821;22;20173;-77
2022/08/25 12:18:41;;;;;;;3.30;1.52;;;;;41.10;100793.00;;;;12836469;22;20399;-77
2022/08/25 12:24:05;;;;;;;2.60;1.80;;;;;41.10;100797.00;;;;12813008;22;20466;-77
2022/08/25 12:29:25;;;;;;;2.65;1.45;;;;;41.70;100792.00;;;;12837009;22;20173;-77
2022/08/25 12:34:26;;;;;;;2.50;1.70;;;;;39.70;100803.00;;;;12811524;22;20613;-77
2022/08/25 12:39:35;;;;;;;2.90;1.63;;;;;37.60;100800.00;;;;12811101;22;20670;-77
2022/08/25 12:44:48;;;;;;;3.38;1.80;;;;;36.40;100797.00;;;;12857052;22;20237;-77
2022/08/25 12:49:50;;;;;;;3.42;1.98;;;;;37.10;100788.00;;;;12831626;22;20653;-77
2022/08/25 12:54:59;;;;;;;3.75;1.42;;;;;38.70;100779.00;;;;12856005;22;20162;-77
2022/08/25 13:00:14;;;;;;;3.42;1.85;;;;;39.50;100778.00;;;;12811343;22;20194;-77
2022/08/25 13:05:33;;;;;;;3.35;1.70;;;;;40.30;100775.00;;;;12855746;22;20165;-76
2022/08/25 13:10:51;;;;;;;4.50;1.77;;;;;40.50;100769.00;;;;12857025;22;20177;-77
2022/08/25 13:16:05;;;;;;;6.35;2.00;;;;;41.10;100779.00;;;;12830454;22;20268;-77
2022/08/25 13:21:20;;;;;;;3.72;1.58;;;;;41.10;100762.00;;;;12830018;22;20798;-77
2022/08/25 13:26:26;;;;;;;1.73;1.52;;;;;42.30;100754.00;;;;12805018;22;20172;-77
2022/08/25 13:31:30;;;;;;;4.55;2.17;;;;;43.20;100751.00;;;;12785461;22;20284;-77
2022/08/25 13:42:05;;;;;;;2.42;1.33;;;;;45.00;100751.00;;;;12835727;22;20173;-77
2022/08/25 13:47:23;;;;;;;2.53;1.88;;;;;45.20;100755.00;;;;12810503;22;20320;-78
2022/08/25 13:52:28;;;;;;;2.88;1.80;;;;;44.90;100745.00;;;;12812450;23;20225;-77
2022/08/25 13:57:31;;;;;;;3.08;1.83;;;;;45.70;100746.00;;;;12832910;22;20586;-77
2022/08/25 14:02:48;;;;;;;2.25;1.58;;;;;43.70;100751.00;;;;12762091;22;20173;-77
2022/08/25 14:07:55;;;;;;;1.60;1.50;;;;;42.50;100749.00;;;;12786520;22;20617;-77
2022/08/25 14:13:26;;;;;;;6.05;2.13;;;;;43.20;100740.00;;;;12792811;22;20541;-76
2022/08/25 14:18:32;;;;;;;8.35;3.45;;;;;41.80;100735.00;;;;12787445;22;20197;-76
2022/08/25 14:23:37;;;;;;;5.97;3.03;;;;;42.10;100720.00;;;;12784691;22;20708;-77
2022/08/25 14:28:38;;;;;;;4.97;3.47;;;;;41.50;100723.00;;;;12829659;22;20169;-76
2022/08/25 14:33:48;;;;;;;6.93;2.92;;;;;41.20;100724.00;;;;12831510;22;20178;-77
2022/08/25 14:38:53;;;;;;;6.35;3.28;;;;;41.60;100729.00;;;;12806002;22;20190;-76
2022/08/25 14:43:55;;;;;;;10.13;3.47;;;;;36.70;100729.00;;;;12810037;22;20177;-76
2022/08/25 14:49:01;;;;;;;6.75;3.10;;;;;39.60;100743.00;;;;12835392;22;20193;-76
2022/08/25 14:54:06;;;;;;;6.55;3.15;;;;;39.60;100722.00;;;;12785071;22;20185;-77
2022/08/25 14:59:09;;;;;;;4.68;3.00;;;;;37.10;100743.00;;;;12830476;22;20170;-76
2022/08/25 15:04:30;;;;;;;6.32;3.45;;;;;35.20;100735.00;;;;12785217;22;20201;-76
2022/08/25 15:09:31;;;;;;;6.13;3.63;;;;;34.10;100737.00;;;;12855304;22;20201;-77
2022/08/25 15:14:34;;;;;;;6.13;3.25;;;;;34.00;100718.00;;;;12809038;22;20206;-76
2022/08/25 15:19:35;;;;;;;4.38;3.13;;;;;33.90;100721.00;;;;12856737;22;20834;-77
2022/08/25 15:24:37;;;;;;;6.28;2.95;;;;;33.50;100716.00;;;;12830834;22;20190;-76
2022/08/25 15:29:40;;;;;;;10.23;3.13;;;;;33.30;100721.00;;;;12856263;22;20396;-76
2022/08/25 15:34:41;;;;;;;6.03;3.05;;;;;33.40;100709.00;;;;12808833;22;20245;-77
2022/08/25 15:39:44;;;;;;;8.88;5.00;;;;;33.20;100706.00;;;;12856577;22;20229;-76
2022/08/25 15:44:46;;;;;;;7.18;4.35;;;;;32.70;100726.00;;;;12810283;22;20178;-77
2022/08/25 15:50:15;;;;;;;7.28;5.45;;;;;32.20;100728.00;;;;12856101;22;20205;-77
2022/08/25 15:55:16;;;;;;;9.35;6.30;;;;;31.80;100734.00;;;;12810152;22;20193;-77
2022/08/25 16:00:18;;;;;;;10.88;8.85;;;;;31.40;100747.00;;;;12806296;22;20189;-76
2022/08/25 16:05:22;;;;;;;10.73;8.02;;;;;30.70;100755.00;;;;12831543;22;20166;-77
2022/08/25 16:10:27;;;;;;;8.60;7.13;;;;;30.40;100768.00;;;;12830818;22;20778;-77
2022/08/25 16:15:28;;;;;;;12.23;8.50;;;;;30.20;100764.00;;;;12809053;22;20171;-77
2022/08/25 16:20:32;;;;;;;10.68;8.43;;;;;30.10;100753.00;;;;12784229;22;20178;-76
2022/08/25 16:25:39;;;;;;;11.32;8.88;;;;;29.90;100753.00;;;;12808838;22;20170;-76
2022/08/25 16:30:46;;;;;;;10.77;9.43;;;;;29.60;100761.00;;;;12855706;22;20186;-77
2022/08/25 16:36:10;;;;;;;10.02;8.05;;;;;29.40;100772.00;;;;12830112;22;20193;-76
2022/08/25 16:41:17;;;;;;;10.73;9.70;;;;;29.00;100769.00;;;;12855384;22;20181;-77
2022/08/25 16:46:20;;;;;;;12.57;10.73;;;;;28.70;100766.00;;;;12809887;22;20174;-76
2022/08/25 16:51:22;;;;;;;11.85;9.68;;;;;28.40;100772.00;;;;12805780;22;20213;-76
2022/08/25 16:56:33;;;;;;;11.00;9.98;;;;;28.20;100773.00;;;;12811037;22;20373;-76
2022/08/25 17:01:36;;;;;;;13.48;10.27;;;;;27.90;100774.00;;;;12809199;22;20468;-76
2022/08/25 17:06:41;;;;;;;11.23;10.02;;;;;27.60;100775.00;;;;12786413;22;20202;-76
2022/08/25 17:11:55;;;;;;;15.48;10.88;;;;;27.30;100786.00;;;;12786883;22;20201;-76
2022/08/25 17:16:56;;;;;;;17.48;11.05;;;;;27.10;100796.00;;;;12785819;22;20208;-77
2022/08/25 17:21:58;;;;;;;12.48;10.30;;;;;26.90;100797.00;;;;12785264;22;20257;-77
2022/08/25 17:27:00;;;;;;;13.95;11.48;;;;;26.70;100800.00;;;;12834519;22;20162;-77
2022/08/25 17:32:03;;;;;;;16.35;12.43;;;;;26.40;100796.00;;;;12857444;22;20188;-77
2022/08/25 17:37:05;;;;;;;13.43;11.10;;;;;26.10;100806.00;;;;12811221;22;20197;-76
2022/08/25 17:42:06;;;;;;;13.93;12.68;;;;;25.90;100808.00;;;;12761735;22;20170;-77
2022/08/25 17:47:10;;;;;;;15.75;13.07;;;;;25.70;100817.00;;;;12785529;22;20661;-77
2022/08/25 17:52:11;;;;;;;18.08;14.68;;;;;25.60;100819.00;;;;12786023;22;20228;-77
2022/08/25 17:57:14;;;;;;;19.92;16.25;;;;;25.40;100830.00;;;;12856798;22;20856;-79
2022/08/25 18:02:16;;;;;;;17.23;15.40;;;;;25.20;100847.00;;;;12784698;22;20668;-76
2022/08/25 18:07:17;;;;;;;21.30;15.77;;;;;25.00;100844.00;;;;12859080;22;20248;-77
2022/08/25 18:12:19;;;;;;;17.35;15.65;;;;;24.90;100847.00;;;;12840017;22;20277;-76
2022/08/25 18:17:21;;;;;;;21.25;15.75;;;;;24.70;100848.00;;;;12855621;22;20805;-79
2022/08/25 18:22:23;;;;;;;18.55;16.65;;;;;24.60;100861.00;;;;12857620;22;20187;-77
2022/08/25 18:27:25;;;;;;;18.15;15.95;;;;;24.50;100882.00;;;;12787193;22;20249;-77
2022/08/25 18:32:28;;;;;;;20.55;18.35;;;;;24.40;100887.00;;;;12784329;22;20399;-77
2022/08/25 18:43:02;;;;;;;22.88;17.92;;;;;23.90;100914.00;;;;12786943;22;20786;-76
2022/08/25 18:48:03;;;;;;;22.15;18.83;;;;;23.80;100919.00;;;;12787181;22;20170;-77
2022/08/25 18:53:08;;;;;;;24.92;19.45;;;;;23.60;100930.00;;;;12786639;22;20178;-77
2022/08/25 18:58:10;;;;;;;21.63;17.42;;;;;23.50;100947.00;;;;12807891;22;20209;-77
2022/08/25 19:03:14;;;;;;;22.73;17.83;;;;;23.30;100966.00;;;;12784866;22;20205;-76
2022/08/25 19:08:17;;;;;;;23.65;16.05;;;;;23.20;100970.00;;;;12787290;22;20642;-77
2022/08/25 19:13:36;;;;;;;16.15;11.27;;;;;23.10;100985.00;;;;12813941;22;20173;-77
2022/08/25 19:18:37;;;;;;;21.55;11.90;;;;;23.00;101001.00;;;;12809217;22;20170;-77
2022/08/25 19:23:39;;;;;;;15.38;10.65;;;;;22.90;101003.00;;;;12816166;22;20257;-77
2022/08/25 19:29:05;;;;;;;16.40;8.88;;;;;22.80;100997.00;;;;12835227;22;20254;-77
2022/08/25 19:34:40;;;;;;;14.32;8.60;;;;;22.70;101017.00;;;;12790628;22;20854;-78
2022/08/25 19:39:49;;;;;;;14.27;8.57;;;;;22.60;101013.00;;;;12813953;22;20225;-78
2022/08/25 19:44:54;;;;;;;14.57;7.90;;;;;22.40;101010.00;;;;12816736;22;20189;-77
2022/08/25 19:49:57;;;;;;;20.25;7.97;;;;;22.30;101008.00;;;;12862057;22;20216;-77
2022/08/25 19:55:06;;;;;;;14.32;8.40;;;;;22.20;101020.00;;;;12810510;22;20170;-79
2022/08/25 20:00:22;;;;;;;12.93;8.32;;;;;22.10;101020.00;;;;12789334;22;20194;-78
2022/08/25 20:05:23;;;;;;;14.18;8.15;;;;;21.90;101018.00;;;;12791079;22;20169;-79
2022/08/25 20:10:27;;;;;;;12.05;7.13;;;;;21.80;101026.00;;;;12791335;22;20209;-78
2022/08/25 20:15:30;;;;;;;13.80;6.57;;;;;21.70;101035.00;;;;12792240;22;20170;-78
2022/08/25 20:20:35;;;;;;;11.40;6.22;;;;;21.60;101037.00;;;;12837599;22;20660;-77
2022/08/25 20:25:52;;;;;;;12.60;6.07;;;;;21.50;101034.00;;;;12838126;22;20193;-78
2022/08/25 20:30:55;;;;;;;11.90;6.15;;;;;21.50;101048.00;;;;12813168;22;20186;-79
2022/08/25 20:35:58;;;;;;;11.23;5.65;;;;;21.40;101058.00;;;;12817932;22;20203;-78
2022/08/25 20:41:00;;;;;;;10.13;4.60;;;;;21.40;101046.00;;;;12819307;22;20198;-78
2022/08/25 20:46:03;;;;;;;8.02;3.80;;;;;21.30;101056.00;;;;12794445;22;20170;-78
2022/08/25 20:51:06;;;;;;;10.07;3.83;;;;;21.30;101063.00;;;;12792919;22;20220;-78
2022/08/25 20:56:10;;;;;;;7.35;2.72;;;;;21.30;101066.00;;;;12792216;22;20178;-78
2022/08/25 21:01:21;;;;;;;9.25;3.10;;;;;21.30;101067.00;;;;12791520;22;20194;-77
2022/08/25 21:06:24;;;;;;;9.55;2.75;;;;;21.20;101064.00;;;;12765666;22;20216;-77
2022/08/25 21:11:26;;;;;;;6.18;2.80;;;;;21.20;101065.00;;;;12764494;22;20170;-77
2022/08/25 21:16:28;;;;;;;7.65;2.53;;;;;21.20;101067.00;;;;12830977;22;20497;-77
2022/08/25 21:21:29;;;;;;;5.10;2.97;;;;;21.20;101066.00;;;;12829626;22;20186;-77
2022/08/25 21:26:31;;;;;;;11.20;3.55;;;;;21.20;101068.00;;;;12810674;22;20224;-77
2022/08/25 21:31:33;;;;;;;4.55;3.10;;;;;21.10;101084.00;;;;12849262;22;20247;-77
2022/08/25 21:36:43;;;;;;;7.18;3.38;;;;;21.10;101072.00;;;;12803669;22;20204;-77
2022/08/25 21:41:47;;;;;;;6.20;4.57;;;;;21.10;101077.00;;;;12784639;22;20275;-77
2022/08/25 21:46:57;;;;;;;10.55;4.32;;;;;21.10;101081.00;;;;12757685;22;20186;-77
2022/08/25 21:52:02;;;;;;;8.48;5.28;;;;;21.00;101085.00;;;;12784613;22;20763;-77
2022/08/25 21:57:06;;;;;;;10.73;6.35;;;;;21.00;101088.00;;;;12806257;22;20171;-77
2022/08/25 22:02:10;;;;;;;10.05;6.13;;;;;20.90;101089.00;;;;12851602;22;20194;-77
2022/08/25 22:07:12;;;;;;;12.23;7.25;;;;;20.90;101085.00;;;;12784834;22;20170;-76
2022/08/25 22:12:14;;;;;;;10.45;7.05;;;;;20.90;101104.00;;;;12788233;22;20269;-77
2022/08/25 22:17:16;;;;;;;11.90;6.40;;;;;20.90;101094.00;;;;12859291;22;20169;-77
2022/08/25 22:22:27;;;;;;;11.77;5.57;;;;;20.90;101100.00;;;;12857680;22;20182;-76
2022/08/25 22:27:30;;;;;;;12.73;5.72;;;;;20.90;101093.00;;;;12854421;22;20499;-78
2022/08/25 22:32:31;;;;;;;8.27;4.57;;;;;20.80;101094.00;;;;12827021;22;20174;-77
2022/08/25 22:37:33;;;;;;;9.70;4.00;;;;;20.80;101101.00;;;;12765311;22;20199;-77
2022/08/25 22:42:36;;;;;;;9.13;3.08;;;;;20.80;101111.00;;;;12766849;22;20695;-77
2022/08/25 22:47:38;;;;;;;6.93;3.33;;;;;20.70;101104.00;;;;12817813;22;20371;-77
2022/08/25 22:52:42;;;;;;;6.43;3.28;;;;;20.70;101114.00;;;;12818569;22;20174;-77
2022/08/25 22:57:47;;;;;;;8.98;2.95;;;;;20.60;101110.00;;;;12817692;22;20632;-77
2022/08/25 23:02:55;;;;;;;9.52;3.35;;;;;20.60;101107.00;;;;12817643;22;20190;-77
2022/08/25 23:07:57;;;;;;;9.85;3.15;;;;;20.60;101114.00;;;;12864308;22;20162;-76
2022/08/25 23:12:59;;;;;;;6.05;2.97;;;;;20.60;101106.00;;;;12792937;22;20213;-77
2022/08/25 23:18:00;;;;;;;10.15;3.28;;;;;20.50;101104.00;;;;12839139;22;20171;-78
2022/08/25 23:23:01;;;;;;;6.05;2.50;;;;;20.40;101100.00;;;;12791328;23;20276;-78
2022/08/25 23:28:03;;;;;;;8.00;2.90;;;;;20.40;101106.00;;;;12836883;22;20166;-78
2022/08/25 23:33:04;;;;;;;6.40;2.97;;;;;20.40;101108.00;;;;12792571;22;20677;-77
2022/08/25 23:38:06;;;;;;;9.13;2.10;;;;;20.40;101104.00;;;;12818228;22;20202;-76
2022/08/25 23:43:09;;;;;;;10.75;2.67;;;;;20.40;101107.00;;;;12793221;22;20705;-76
2022/08/25 23:48:10;;;;;;;3.97;2.20;;;;;20.40;101105.00;;;;12813743;22;20885;-77
2022/08/25 23:53:14;;;;;;;4.82;2.35;;;;;20.40;101108.00;;;;12840510;22;20177;-78
2022/08/25 23:58:16;;;;;;;4.93;1.83;;;;;20.40;101115.00;;;;12818533;22;20166;-77
